Tolona, Missouri
Current Conditions -  °F | °C
As of 11:35 PM on Sunday 19 Oct 2014 (Local Time) from KHAE Reporting Station
Overcast Overcast  
Wind Chill: 13°   Ceiling: 9500
Heat Index: 13°   Visibility: 10mi
Dew Point:   Wind: 7mph
Humidity: 63%   Direction: 210°SSW
Pressure: 29.98"   Gusts: NA
Location:  40.0949°N, 91.8336°W
Report Text: KHAE 200435Z AUTO 21006KT 10SM OVC095 13/06 A2998 RMK AO2
Loading
Personal Weather Stations






























Interactive Weather Map
Tropical Storm Tracking
New forecast layout! Learn more

10-Day Weather Forecast

Advertisements
Track Severe Weather on mobile